createdAt,value
2018-02-10T03:30:05.015Z,94529.46
2018-02-10T03:32:33.320Z,94531.87
2018-02-10T03:35:01.635Z,94530.41
2018-02-10T03:37:29.952Z,94533.34
2018-02-10T03:39:58.264Z,94535.32
2018-02-10T03:42:26.575Z,94531.48
2018-02-10T03:44:54.871Z,94521.48
2018-02-10T03:47:23.230Z,94520.28
2018-02-10T03:49:51.555Z,94520.02
2018-02-10T03:52:19.853Z,94524.16
2018-02-10T03:54:48.184Z,94528.30
2018-02-10T03:57:16.497Z,94528.30
2018-02-10T03:59:44.804Z,94522.69
2018-02-10T04:02:13.099Z,94509.59
2018-02-10T04:04:41.417Z,94508.80
2018-02-10T04:07:09.745Z,94508.63
2018-02-10T04:09:38.036Z,94502.12
2018-02-10T04:12:06.347Z,94499.97
2018-02-10T04:14:35.424Z,94503.05
2018-02-10T04:17:03.728Z,94498.75
2018-02-10T04:19:32.012Z,94492.07
2018-02-10T04:22:00.314Z,94487.96
2018-02-10T04:24:28.595Z,94489.56
2018-02-10T04:26:56.884Z,94483.69
2018-02-10T04:29:25.186Z,94488.22
2018-02-10T04:31:53.500Z,94485.02
2018-02-10T04:34:21.808Z,94495.56
2018-02-10T04:36:50.117Z,94496.77
2018-02-10T04:39:18.398Z,94493.29
2018-02-10T04:41:46.945Z,94487.55
2018-02-10T04:44:15.250Z,94479.41
2018-02-10T04:46:44.833Z,94475.27
2018-02-10T04:49:13.414Z,94481.41
2018-02-10T04:51:41.885Z,94479.80
2018-02-10T04:54:10.162Z,94474.86
2018-02-10T04:56:38.477Z,94470.06
2018-02-10T04:59:06.775Z,94467.25
2018-02-10T05:01:35.082Z,94472.20
2018-02-10T05:04:03.401Z,94477.00
2018-02-10T05:06:31.698Z,94478.33
2018-02-10T05:09:00.029Z,94482.20
2018-02-10T05:11:28.329Z,94476.05
2018-02-10T05:13:56.643Z,94468.67
2018-02-10T05:16:24.936Z,94479.36
2018-02-10T05:18:53.250Z,94474.00
2018-02-10T05:21:21.570Z,94475.47
2018-02-10T05:23:49.873Z,94467.18
2018-02-10T05:26:18.174Z,94473.05
2018-02-10T05:28:46.485Z,94474.47
2018-02-10T05:31:14.802Z,94479.68
2018-02-10T05:33:43.093Z,94476.73
2018-02-10T05:36:11.375Z,94487.14
2018-02-10T05:38:39.669Z,94484.88
2018-02-10T05:41:07.984Z,94486.73
2018-02-10T05:43:37.033Z,94482.19
2018-02-10T05:46:05.345Z,94483.78
2018-02-10T05:48:33.649Z,94478.70
2018-02-10T05:51:01.952Z,94472.80
2018-02-10T05:53:30.256Z,94471.86
2018-02-10T05:55:58.574Z,94470.39
2018-02-10T05:58:26.883Z,94465.19
2018-02-10T06:00:55.186Z,94460.11
2018-02-10T06:03:23.510Z,94469.05
2018-02-10T06:05:51.794Z,94459.56
2018-02-10T06:08:20.104Z,94471.84
2018-02-10T06:10:48.398Z,94477.85
2018-02-10T06:13:16.706Z,94480.77
2018-02-10T06:15:45.012Z,94491.20
2018-02-10T06:18:13.494Z,94494.27
2018-02-10T06:20:42.422Z,94498.63
2018-02-10T06:23:10.730Z,94497.30
2018-02-10T06:25:39.029Z,94493.15
2018-02-10T06:28:08.271Z,94495.16
2018-02-10T06:30:36.599Z,94489.20
2018-02-10T06:33:04.897Z,94494.27
2018-02-10T06:35:33.192Z,94492.67
2018-02-10T06:38:01.570Z,94482.67
2018-02-10T06:40:30.035Z,94477.47
2018-02-10T06:42:58.362Z,94475.97
2018-02-10T06:45:26.668Z,94476.78
2018-02-10T06:47:55.026Z,94477.60
2018-02-10T06:50:23.378Z,94475.47
2018-02-10T06:52:51.719Z,94480.66
2018-02-10T06:55:20.043Z,94475.17
2018-02-10T06:57:48.391Z,94473.79
2018-02-10T07:00:16.735Z,94468.97
2018-02-10T07:02:45.085Z,94467.52
2018-02-10T07:05:13.627Z,94458.88
2018-02-10T07:07:42.021Z,94461.55
2018-02-10T07:10:10.331Z,94471.30
2018-02-10T07:12:38.702Z,94469.72
2018-02-10T07:15:07.005Z,94461.03
2018-02-10T07:17:35.433Z,94458.09
2018-02-10T07:20:03.558Z,94452.49
2018-02-10T07:22:31.936Z,94459.05
2018-02-10T07:25:00.238Z,94447.59
2018-02-10T07:27:28.543Z,94447.63
2018-02-10T07:29:56.838Z,94440.50
2018-02-10T07:32:25.145Z,94438.19
2018-02-10T07:34:53.451Z,94436.73
2018-02-10T07:37:21.795Z,94429.28
2018-02-10T07:39:50.086Z,94436.22
2018-02-10T07:42:18.370Z,94428.50
2018-02-10T07:44:46.685Z,94426.23
2018-02-10T07:47:15.023Z,94419.70
2018-02-10T07:49:44.182Z,94418.06
2018-02-10T07:52:12.496Z,94408.88
2018-02-10T07:54:40.796Z,94405.80
2018-02-10T07:57:09.120Z,94400.86
2018-02-10T07:59:37.459Z,94402.55
2018-02-10T08:02:05.760Z,94396.53
2018-02-10T08:04:34.072Z,94388.61
2018-02-10T08:07:02.440Z,94383.74
2018-02-10T08:09:30.733Z,94389.83
2018-02-10T08:11:59.040Z,94384.33
2018-02-10T08:14:27.371Z,94389.48
2018-02-10T08:16:55.676Z,94385.70
2018-02-10T08:19:24.050Z,94380.52
2018-02-10T08:21:52.422Z,94382.34
2018-02-10T08:24:20.734Z,94384.06
2018-02-10T08:26:49.078Z,94374.29
2018-02-10T08:29:17.390Z,94378.02
2018-02-10T08:31:45.684Z,94372.53
2018-02-10T08:34:13.979Z,94364.62
2018-02-10T08:36:42.276Z,94359.53
2018-02-10T08:39:10.569Z,94360.55
2018-02-10T08:41:38.868Z,94358.75
2018-02-10T08:44:07.170Z,94357.80
2018-02-10T08:46:35.481Z,94359.76
2018-02-10T08:49:03.814Z,94355.34
2018-02-10T08:51:32.852Z,94361.33
2018-02-10T08:54:01.136Z,94355.32
2018-02-10T08:56:29.430Z,94364.75
2018-02-10T08:58:57.719Z,94360.48
2018-02-10T09:01:26.028Z,94359.53
2018-02-10T09:03:54.337Z,94357.66
2018-02-10T09:06:22.646Z,94347.38
2018-02-10T09:08:50.940Z,94341.36
2018-02-10T09:11:19.425Z,94343.31
2018-02-10T09:13:47.823Z,94332.50
2018-02-10T09:16:16.463Z,94336.49
2018-02-10T09:18:44.797Z,94334.36
2018-02-10T09:21:13.100Z,94331.55
2018-02-10T09:23:41.390Z,94341.28
2018-02-10T09:26:09.743Z,94332.08
2018-02-10T09:28:38.035Z,94339.80
2018-02-10T09:31:06.355Z,94342.72
2018-02-10T09:33:34.674Z,94329.50
2018-02-10T09:36:03.001Z,94328.56
2018-02-10T09:38:31.329Z,94326.29
2018-02-10T09:40:59.648Z,94315.99
2018-02-10T09:43:27.946Z,94311.45
2018-02-10T09:45:56.262Z,94303.70
2018-02-10T09:48:24.586Z,94310.38
2018-02-10T09:50:52.899Z,94301.97
2018-02-10T09:53:41.618Z,94312.25
2018-02-10T09:56:10.106Z,94297.25
2018-02-10T09:58:38.414Z,94292.85
2018-02-10T10:01:06.762Z,94287.84
2018-02-10T10:03:37.162Z,94279.03
2018-02-10T10:06:05.670Z,94277.95
2018-02-10T10:08:34.146Z,94274.61
2018-02-10T10:11:02.484Z,94272.06
2018-02-10T10:13:30.805Z,94256.13
2018-02-10T10:15:59.126Z,94257.38
2018-02-10T10:18:27.460Z,94259.69
2018-02-10T10:20:55.773Z,94245.64
2018-02-10T10:23:24.074Z,94249.92
2018-02-10T10:25:52.381Z,94249.92
2018-02-10T10:28:20.677Z,94246.59
2018-02-10T10:30:48.976Z,94245.78
2018-02-10T10:33:17.289Z,94239.90
2018-02-10T10:35:45.578Z,94242.59
2018-02-10T10:38:13.893Z,94232.69
2018-02-10T10:40:42.197Z,94236.17
2018-02-10T10:43:10.501Z,94234.72
2018-02-10T10:45:38.818Z,94236.45
2018-02-10T10:48:07.099Z,94230.30
2018-02-10T10:50:35.386Z,94224.46
2018-02-10T10:53:03.684Z,94228.59
2018-02-10T10:55:32.000Z,94228.72
2018-02-10T10:58:00.322Z,94217.65
2018-02-10T11:00:28.427Z,94216.69
2018-02-10T11:02:56.743Z,94211.52
2018-02-10T11:05:25.260Z,94206.29
2018-02-10T11:07:53.579Z,94205.75
2018-02-10T11:10:22.138Z,94205.75
2018-02-10T11:12:50.469Z,94193.04
2018-02-10T11:15:18.753Z,94209.50
2018-02-10T11:17:47.061Z,94200.55
2018-02-10T11:20:15.363Z,94195.47
2018-02-10T11:22:43.688Z,94192.15
2018-02-10T11:25:12.008Z,94188.80
2018-02-10T11:27:40.298Z,94188.13
2018-02-10T11:30:08.595Z,94177.44
2018-02-10T11:32:36.938Z,94175.70
2018-02-10T11:35:05.270Z,94177.44
2018-02-10T11:37:33.416Z,94171.45
2018-02-10T11:40:01.771Z,94174.77
2018-02-10T11:42:30.246Z,94166.36
2018-02-10T11:44:58.542Z,94161.16
2018-02-10T11:47:26.904Z,94159.95
2018-02-10T11:49:55.229Z,94157.81
2018-02-10T11:52:23.607Z,94159.16
2018-02-10T11:54:51.926Z,94156.20
2018-02-10T11:57:20.232Z,94161.56
2018-02-10T11:59:49.587Z,94154.89
2018-02-10T12:02:17.909Z,94155.28
2018-02-10T12:04:46.216Z,94152.48
2018-02-10T12:07:14.547Z,94159.41
2018-02-10T12:09:42.858Z,94146.22
2018-02-10T12:12:11.164Z,94147.81
2018-02-10T12:14:39.459Z,94143.95
2018-02-10T12:17:07.853Z,94135.55
2018-02-10T12:19:36.314Z,94132.59
2018-02-10T12:22:04.642Z,94131.94
2018-02-10T12:24:32.935Z,94128.05
2018-02-10T12:27:01.226Z,94129.24
2018-02-10T12:29:29.514Z,94121.23
2018-02-10T12:31:57.829Z,94120.30
2018-02-10T12:34:26.145Z,94121.38
2018-02-10T12:36:54.460Z,94116.44
2018-02-10T12:39:22.755Z,94108.45
2018-02-10T12:41:51.065Z,94108.17
2018-02-10T12:44:19.352Z,94103.77
2018-02-10T12:46:47.703Z,94098.03
2018-02-10T12:49:21.566Z,94092.13
2018-02-10T12:51:49.876Z,94095.22
2018-02-10T12:54:18.180Z,94087.86
2018-02-10T12:56:46.474Z,94097.63
2018-02-10T12:59:14.780Z,94091.88
2018-02-10T13:01:43.083Z,94090.93
2018-02-10T13:04:11.404Z,94089.05
2018-02-10T13:06:39.728Z,94091.92
2018-02-10T13:09:08.063Z,94084.06
2018-02-10T13:11:36.338Z,94088.94
2018-02-10T13:14:04.643Z,94084.14
2018-02-10T13:16:32.936Z,94081.22
2018-02-10T13:19:01.272Z,94074.40
2018-02-10T13:21:29.610Z,94078.95
2018-02-10T13:23:57.792Z,94071.87
2018-02-10T13:26:26.097Z,94074.14
2018-02-10T13:28:54.389Z,94074.69
2018-02-10T13:31:22.681Z,94071.98
2018-02-10T13:33:50.976Z,94070.42
2018-02-10T13:36:19.165Z,94065.45
2018-02-10T13:38:47.454Z,94065.38
2018-02-10T13:41:15.751Z,94062.10
2018-02-10T13:43:43.983Z,94057.90
2018-02-10T13:46:12.281Z,94059.34
2018-02-10T13:48:41.287Z,94053.04
2018-02-10T13:51:09.657Z,94055.97
2018-02-10T13:53:37.946Z,94047.16
2018-02-10T13:56:06.254Z,94048.35
2018-02-10T13:58:34.538Z,94049.14
2018-02-10T14:01:02.829Z,94047.92
2018-02-10T14:03:31.133Z,94048.55
2018-02-10T14:05:59.427Z,94039.99
2018-02-10T14:08:27.772Z,94042.92
2018-02-10T14:10:56.055Z,94038.63
2018-02-10T14:13:24.343Z,94039.28
2018-02-10T14:15:52.637Z,94035.53
2018-02-10T14:18:20.937Z,94032.86
2018-02-10T14:20:50.253Z,94034.45
2018-02-10T14:23:18.365Z,94031.64
2018-02-10T14:25:46.454Z,94026.69
2018-02-10T14:28:14.545Z,94024.27
2018-02-10T14:30:42.830Z,94022.77
2018-02-10T14:33:11.108Z,94022.62
2018-02-10T14:35:39.388Z,94016.41
2018-02-10T14:38:07.902Z,94021.78
2018-02-10T14:40:36.210Z,94031.02
2018-02-10T14:43:04.903Z,94029.97
2018-02-10T14:45:33.272Z,94028.52
2018-02-10T14:48:01.649Z,94031.19
2018-02-10T14:50:29.948Z,94031.11
2018-02-10T14:52:58.262Z,94030.45
2018-02-10T14:55:26.569Z,94030.05
2018-02-10T14:57:54.921Z,94037.02
2018-02-10T15:00:23.250Z,94032.22
2018-02-10T15:02:51.617Z,94031.31
2018-02-10T15:05:19.902Z,94024.78
2018-02-10T15:07:48.828Z,94029.46
2018-02-10T15:10:17.137Z,94019.41
2018-02-10T15:12:45.413Z,94027.16
2018-02-10T15:18:05.564Z,94023.19
2018-02-10T15:20:34.677Z,94015.72
2018-02-10T15:23:02.977Z,94010.63
2018-02-10T15:25:31.082Z,94017.67
2018-02-10T15:27:59.421Z,94017.95
2018-02-10T15:30:39.147Z,94009.52
2018-02-10T15:33:18.888Z,93996.02
2018-02-10T15:35:47.231Z,93997.22
2018-02-10T15:38:15.506Z,93986.67
2018-02-10T15:40:43.799Z,93980.66
2018-02-10T15:43:12.113Z,93982.09
2018-02-10T15:45:40.390Z,93988.52
2018-02-10T15:48:08.675Z,93986.25
2018-02-10T15:50:36.993Z,93982.24
2018-02-10T15:53:05.298Z,93979.77
2018-02-10T15:55:33.631Z,93978.72
2018-02-10T15:58:01.945Z,93981.20
2018-02-10T16:00:30.278Z,93983.61
2018-02-10T16:02:58.764Z,93985.98
2018-02-10T16:05:27.047Z,93987.67
2018-02-10T16:07:55.396Z,93984.64
2018-02-10T16:10:23.702Z,93985.47
2018-02-10T16:12:52.003Z,93980.06
2018-02-10T16:15:20.342Z,93973.97
2018-02-10T16:17:48.717Z,93974.05
2018-02-10T16:20:17.060Z,93969.48
2018-02-10T16:22:45.386Z,93967.66
2018-02-10T16:25:14.044Z,93958.30
2018-02-10T16:27:42.357Z,93957.08
2018-02-10T16:30:10.683Z,93956.43
2018-02-10T16:32:39.896Z,93954.13
2018-02-10T16:35:08.218Z,93956.51
2018-02-10T16:37:36.534Z,93960.41
2018-02-10T16:40:05.100Z,93957.27
2018-02-10T16:42:33.313Z,93961.99
2018-02-10T16:45:01.639Z,93963.33
2018-02-10T16:47:29.973Z,93969.17
2018-02-10T16:49:58.269Z,93968.38
2018-02-10T16:52:26.425Z,93968.34
2018-02-10T16:54:55.349Z,93962.47
2018-02-10T16:57:23.914Z,93954.28
2018-02-10T16:59:52.402Z,93951.24
2018-02-10T17:02:20.713Z,93942.44
2018-02-10T17:04:49.617Z,93942.37
2018-02-10T17:07:17.908Z,93940.39
2018-02-10T17:09:46.225Z,93945.50
2018-02-10T17:12:15.376Z,93946.84
2018-02-10T17:14:43.903Z,93941.33
2018-02-10T17:17:12.699Z,93936.92
2018-02-10T17:19:41.046Z,93935.05
2018-02-10T17:22:10.341Z,93929.48
2018-02-10T17:24:38.432Z,93924.97
2018-02-10T17:27:06.917Z,93919.92
2018-02-10T17:29:35.446Z,93920.57
2018-02-10T17:32:03.747Z,93915.91
2018-02-10T17:34:32.182Z,93916.88
2018-02-10T17:37:00.578Z,93911.80
2018-02-10T17:39:28.764Z,93911.41
2018-02-10T17:41:57.080Z,93919.95
2018-02-10T17:44:25.198Z,93913.13
2018-02-10T17:46:53.541Z,93907.25
2018-02-10T17:49:22.008Z,93907.43
2018-02-10T17:53:04.989Z,93898.16
2018-02-10T17:55:33.397Z,93893.26
2018-02-10T17:58:01.764Z,93905.09
2018-02-10T18:00:30.053Z,93898.05
2018-02-10T18:02:58.338Z,93899.42
2018-02-10T18:05:26.632Z,93895.81
2018-02-10T18:07:54.962Z,93900.61
2018-02-10T18:10:23.060Z,93896.81
2018-02-10T18:12:51.779Z,93905.22
2018-02-10T18:15:20.085Z,93909.16
2018-02-10T18:17:48.385Z,93908.76
2018-02-10T18:20:16.667Z,93909.02
2018-02-10T18:22:44.970Z,93911.82
2018-02-10T18:25:13.249Z,93906.98
2018-02-10T18:27:41.303Z,93909.66
2018-02-10T18:30:09.534Z,93912.58
2018-02-10T18:32:37.652Z,93906.48
2018-02-10T18:35:06.874Z,93908.79
2018-02-10T18:37:35.410Z,93898.36
2018-02-10T18:40:03.698Z,93905.90
2018-02-10T18:42:31.983Z,93915.03
2018-02-10T18:45:00.263Z,93914.84
2018-02-10T18:47:28.586Z,93910.92
2018-02-10T18:49:56.960Z,93906.88
2018-02-10T18:52:25.394Z,93904.89
2018-02-10T18:54:55.161Z,93909.95
2018-02-10T18:57:23.494Z,93909.95
2018-02-10T18:59:51.866Z,93907.53
2018-02-10T19:02:20.245Z,93905.15
2018-02-10T19:04:48.573Z,93911.94
2018-02-10T19:07:16.807Z,93910.20
2018-02-10T19:09:45.128Z,93915.39
2018-02-10T19:12:13.469Z,93910.48
2018-02-10T19:14:42.386Z,93912.25
2018-02-10T19:17:10.736Z,93908.90
2018-02-10T19:19:39.052Z,93905.10
2018-02-10T19:22:07.889Z,93903.30
2018-02-10T19:24:36.015Z,93905.78
2018-02-10T19:27:04.337Z,93906.04
2018-02-10T19:29:32.616Z,93905.90
2018-02-10T19:32:00.906Z,93900.38
2018-02-10T19:34:29.062Z,93905.50
2018-02-10T19:36:58.049Z,93901.89
2018-02-10T19:39:26.683Z,93905.72
2018-02-10T19:41:55.342Z,93899.77
2018-02-10T19:44:23.644Z,93908.31
2018-02-10T19:46:52.587Z,93900.16
2018-02-10T19:49:21.626Z,93900.16
2018-02-10T19:51:50.810Z,93896.70
2018-02-10T19:54:18.881Z,93892.69
2018-02-10T19:56:47.178Z,93892.23
2018-02-10T19:59:15.479Z,93896.77
2018-02-10T20:01:43.839Z,93891.69
2018-02-10T20:04:12.184Z,93894.42
2018-02-10T20:06:40.723Z,93887.83
2018-02-10T20:09:09.873Z,93881.70
2018-02-10T20:11:38.510Z,93890.47
2018-02-10T20:14:07.628Z,93885.55
2018-02-10T20:16:36.442Z,93883.28
2018-02-10T20:19:04.740Z,93881.37
2018-02-10T20:21:33.745Z,93874.02
2018-02-10T20:24:02.076Z,93868.81
2018-02-10T20:26:30.277Z,93865.21
2018-02-10T20:28:58.576Z,93855.75
2018-02-10T20:31:26.889Z,93857.73
2018-02-10T20:33:55.186Z,93858.67
2018-02-10T20:36:23.543Z,93855.61
2018-02-10T20:38:51.874Z,93854.81
2018-02-10T20:41:20.946Z,93851.46
2018-02-10T20:43:49.260Z,93849.73
2018-02-10T20:46:17.542Z,93849.98
2018-02-10T20:48:45.866Z,93845.94
2018-02-10T20:51:14.777Z,93839.12
2018-02-10T20:53:43.076Z,93843.45
2018-02-10T20:56:11.404Z,93843.56
2018-02-10T20:58:39.713Z,93840.60
2018-02-10T21:01:07.938Z,93830.97
2018-02-10T21:03:36.365Z,93830.89
2018-02-10T21:06:04.694Z,93828.98
2018-02-10T21:08:32.991Z,93835.91
2018-02-10T21:11:01.350Z,93840.95
2018-02-10T21:13:29.800Z,93835.87
2018-02-10T21:15:58.103Z,93835.58
2018-02-10T21:18:29.115Z,93833.67
2018-02-10T21:20:57.482Z,93822.45
2018-02-10T21:23:26.162Z,93820.09
2018-02-10T21:25:54.574Z,93823.31
2018-02-10T21:28:22.873Z,93824.00
2018-02-10T21:30:51.167Z,93821.22
2018-02-10T21:33:19.585Z,93818.16
2018-02-10T21:35:47.875Z,93822.70
2018-02-10T21:38:16.163Z,93821.41
2018-02-10T21:40:44.474Z,93816.61
2018-02-10T21:43:12.804Z,93818.66
2018-02-10T21:45:41.078Z,93817.08
2018-02-10T21:48:10.173Z,93815.73
2018-02-10T21:50:38.460Z,93816.97
2018-02-10T21:53:06.766Z,93810.83
2018-02-10T21:55:35.089Z,93811.63
2018-02-10T21:58:03.394Z,93814.41
2018-02-10T22:00:31.700Z,93810.80
2018-02-10T22:02:59.990Z,93809.06
2018-02-10T22:05:28.309Z,93805.70
2018-02-10T22:07:56.600Z,93804.30
2018-02-10T22:10:24.921Z,93799.06
2018-02-10T22:12:53.220Z,93795.95
2018-02-10T22:15:21.517Z,93795.02
2018-02-10T22:17:49.825Z,93788.59
2018-02-10T22:20:18.167Z,93789.45
2018-02-10T22:22:46.486Z,93787.58
2018-02-10T22:25:14.784Z,93787.83
2018-02-10T22:27:43.090Z,93787.69
2018-02-10T22:30:11.404Z,93788.48
2018-02-10T22:32:39.707Z,93785.16
2018-02-10T22:35:08.028Z,93780.76
2018-02-10T22:37:36.346Z,93780.46
2018-02-10T22:40:04.460Z,93781.01
2018-02-10T22:42:32.766Z,93776.20
2018-02-10T22:45:01.083Z,93777.30
2018-02-10T22:47:29.380Z,93775.48
2018-02-10T22:49:58.676Z,93769.57
2018-02-10T22:52:27.191Z,93764.70
2018-02-10T22:54:55.500Z,93759.80
2018-02-10T22:57:23.822Z,93759.80
2018-02-10T22:59:52.112Z,93754.31
2018-02-10T23:02:20.407Z,93754.31
2018-02-10T23:04:48.776Z,93755.64
2018-02-10T23:07:17.069Z,93745.21
2018-02-10T23:09:45.360Z,93750.16
2018-02-10T23:12:13.658Z,93754.12
2018-02-10T23:14:41.993Z,93747.66
2018-02-10T23:17:10.298Z,93745.49
2018-02-10T23:19:38.650Z,93739.75
2018-02-10T23:22:06.948Z,93736.00
2018-02-10T23:24:35.243Z,93733.67
2018-02-10T23:27:03.681Z,93731.80
2018-02-10T23:29:31.963Z,93729.52
2018-02-10T23:32:00.272Z,93725.52
2018-02-10T23:34:28.559Z,93721.51
2018-02-10T23:36:56.862Z,93721.36
2018-02-10T23:39:25.180Z,93723.09
2018-02-10T23:41:54.261Z,93726.70
2018-02-10T23:44:22.546Z,93727.64
2018-02-10T23:46:50.855Z,93722.99
2018-02-10T23:49:19.150Z,93720.97
2018-02-10T23:51:47.426Z,93716.71
2018-02-10T23:54:15.761Z,93717.66
2018-02-10T23:56:44.054Z,93723.54
2018-02-10T23:59:12.361Z,93724.77
